createdAt,value
2019-05-29T00:00:27.966Z,99452.00
2019-05-29T00:02:57.107Z,99460.00
2019-05-29T00:05:26.313Z,99461.00
2019-05-29T00:07:55.494Z,99471.00
2019-05-29T00:10:24.907Z,99473.00
2019-05-29T00:12:54.298Z,99468.00
2019-05-29T00:15:23.487Z,99478.00
2019-05-29T00:17:52.900Z,99480.00
2019-05-29T00:20:22.317Z,99481.00
2019-05-29T00:22:51.714Z,99483.00
2019-05-29T00:25:21.105Z,99488.00
2019-05-29T00:27:50.643Z,99494.00
2019-05-29T00:30:20.253Z,99494.00
2019-05-29T00:32:49.444Z,99489.00
2019-05-29T00:35:18.901Z,99495.00
2019-05-29T00:37:48.088Z,99506.00
2019-05-29T00:40:18.371Z,99494.00
2019-05-29T00:42:47.883Z,99498.00
2019-05-29T00:45:17.795Z,99502.00
2019-05-29T00:47:46.951Z,99502.00
2019-05-29T00:50:16.879Z,99503.00
2019-05-29T00:52:46.019Z,99501.00
2019-05-29T00:55:16.759Z,99504.00
2019-05-29T00:57:46.024Z,99503.00
2019-05-29T01:00:17.374Z,99504.00
2019-05-29T01:02:47.086Z,99513.00
2019-05-29T01:05:18.079Z,99511.00
2019-05-29T01:07:47.349Z,99522.00
2019-05-29T01:10:18.815Z,99525.00
2019-05-29T01:12:48.339Z,99535.00
2019-05-29T01:15:17.763Z,99528.00
2019-05-29T01:17:47.172Z,99525.00
2019-05-29T01:20:18.067Z,99530.00
2019-05-29T01:22:47.531Z,99536.00
2019-05-29T01:25:16.739Z,99537.00
2019-05-29T01:27:45.925Z,99549.00
2019-05-29T01:30:15.845Z,99551.00
2019-05-29T01:32:46.075Z,99554.00
2019-05-29T01:35:15.798Z,99561.00
2019-05-29T01:37:45.064Z,99562.00
2019-05-29T01:40:21.018Z,99563.00
2019-05-29T01:42:49.763Z,99565.00
2019-05-29T01:45:17.881Z,99573.00
2019-05-29T01:47:47.283Z,99570.00
2019-05-29T01:50:17.760Z,99582.00
2019-05-29T01:52:47.423Z,99576.00
2019-05-29T01:55:17.907Z,99587.00
2019-05-29T01:57:47.469Z,99589.00
2019-05-29T02:00:17.921Z,99592.00
2019-05-29T02:02:47.372Z,99604.00
2019-05-29T02:05:17.825Z,99597.00
2019-05-29T02:07:47.142Z,99604.00
2019-05-29T02:10:18.090Z,99605.00
2019-05-29T02:12:47.698Z,99599.00
2019-05-29T02:15:25.921Z,99603.00
2019-05-29T02:17:50.051Z,99604.00
2019-05-29T02:20:19.549Z,99610.00
2019-05-29T02:22:48.750Z,99613.00
2019-05-29T02:25:22.384Z,99605.00
2019-05-29T02:27:51.843Z,99619.00
2019-05-29T02:30:24.919Z,99625.00
2019-05-29T02:32:52.895Z,99627.00
2019-05-29T02:35:24.608Z,99625.00
2019-05-29T02:37:53.810Z,99631.00
2019-05-29T02:40:24.155Z,99632.00
2019-05-29T02:42:54.110Z,99634.00
2019-05-29T02:45:26.184Z,99640.00
2019-05-29T02:47:54.669Z,99647.00
2019-05-29T02:50:24.569Z,99651.00
2019-05-29T02:52:55.323Z,99658.00
2019-05-29T02:55:24.592Z,99656.00
2019-05-29T02:57:54.481Z,99661.00
2019-05-29T03:00:31.605Z,99664.00
2019-05-29T03:03:00.755Z,99679.00
2019-05-29T03:05:29.970Z,99673.00
2019-05-29T03:07:59.175Z,99679.00
2019-05-29T03:10:28.743Z,99681.00
2019-05-29T03:12:58.169Z,99690.00
2019-05-29T03:15:27.583Z,99685.00
2019-05-29T03:17:57.015Z,99685.00
2019-05-29T03:20:28.015Z,99697.00
2019-05-29T03:22:57.713Z,99702.00
2019-05-29T03:25:28.410Z,99706.00
2019-05-29T03:27:58.311Z,99715.00
2019-05-29T03:30:30.631Z,99708.00
2019-05-29T03:32:58.275Z,99725.00
2019-05-29T03:35:31.547Z,99720.00
2019-05-29T03:37:59.136Z,99730.00
2019-05-29T03:40:29.440Z,99745.00
2019-05-29T03:42:59.733Z,99739.00
2019-05-29T03:45:31.056Z,99749.00
2019-05-29T03:48:00.536Z,99753.00
2019-05-29T03:50:31.209Z,99756.00
2019-05-29T03:53:00.880Z,99757.00
2019-05-29T03:55:31.543Z,99764.00
2019-05-29T03:58:01.029Z,99771.00
2019-05-29T04:00:38.756Z,99774.00
2019-05-29T04:03:01.873Z,99783.00
2019-05-29T04:05:31.068Z,99790.00
2019-05-29T04:08:00.220Z,99791.00
2019-05-29T04:10:32.901Z,99788.00
2019-05-29T04:13:01.732Z,99797.00
2019-05-29T04:15:33.743Z,99806.00
2019-05-29T04:18:05.324Z,99819.00
2019-05-29T04:20:36.118Z,99817.00
2019-05-29T04:23:08.179Z,99830.00
2019-05-29T04:25:41.996Z,99823.00
2019-05-29T04:28:08.841Z,99832.00
2019-05-29T04:30:39.290Z,99838.00
2019-05-29T04:33:08.656Z,99840.00
2019-05-29T04:35:39.732Z,99844.00
2019-05-29T04:38:08.695Z,99851.00
2019-05-29T04:40:39.629Z,99843.00
2019-05-29T04:43:09.421Z,99855.00
2019-05-29T04:45:40.104Z,99862.00
2019-05-29T04:48:09.500Z,99865.00
2019-05-29T04:50:40.662Z,99875.00
2019-05-29T04:53:10.379Z,99874.00
2019-05-29T04:55:39.780Z,99883.00
2019-05-29T04:58:09.638Z,99879.00
2019-05-29T05:00:39.371Z,99889.00
2019-05-29T05:03:09.010Z,99896.00
2019-05-29T05:05:39.428Z,99892.00
2019-05-29T05:08:09.034Z,99899.00
2019-05-29T05:10:41.357Z,99912.00
2019-05-29T05:13:10.895Z,99912.00
2019-05-29T05:15:40.291Z,99923.00
2019-05-29T05:18:10.291Z,99933.00
2019-05-29T05:20:40.355Z,99932.00
2019-05-29T05:23:09.933Z,99941.00
2019-05-29T05:25:40.815Z,99944.00
2019-05-29T05:28:10.000Z,99945.00
2019-05-29T05:30:40.628Z,99941.00
2019-05-29T05:33:10.064Z,99950.00
2019-05-29T05:35:40.985Z,99958.00
2019-05-29T05:38:10.837Z,99954.00
2019-05-29T05:40:42.729Z,99959.00
2019-05-29T05:43:23.205Z,99971.00
2019-05-29T05:45:42.215Z,99970.00
2019-05-29T05:48:11.649Z,99976.00
2019-05-29T05:50:41.489Z,99973.00
2019-05-29T05:53:11.034Z,99985.00
2019-05-29T05:55:41.719Z,99986.00
2019-05-29T05:58:11.219Z,99983.00
2019-05-29T06:00:41.924Z,99991.00
2019-05-29T06:03:11.570Z,100000.00
2019-05-29T06:05:42.199Z,99997.00
2019-05-29T06:08:11.800Z,100005.00
2019-05-29T06:10:40.985Z,100011.00
2019-05-29T06:13:10.369Z,100009.00
2019-05-29T06:15:40.549Z,100008.00
2019-05-29T06:18:20.695Z,100013.00
2019-05-29T06:20:41.546Z,100017.00
2019-05-29T06:23:10.937Z,100030.00
2019-05-29T06:25:41.943Z,100026.00
2019-05-29T06:28:11.567Z,100036.00
2019-05-29T06:30:42.747Z,100035.00
2019-05-29T06:33:12.558Z,100038.00
2019-05-29T06:35:42.077Z,100037.00
2019-05-29T06:38:11.510Z,100043.00
2019-05-29T06:40:44.136Z,100046.00
2019-05-29T06:43:24.656Z,100042.00
2019-05-29T06:45:54.949Z,100059.00
2019-05-29T06:48:42.629Z,100063.00
2019-05-29T06:50:59.015Z,100047.00
2019-05-29T06:53:28.440Z,100059.00
2019-05-29T06:55:59.162Z,100058.00
2019-05-29T06:58:29.132Z,100067.00
2019-05-29T07:00:58.245Z,100076.00
2019-05-29T07:03:27.672Z,100081.00
2019-05-29T07:05:57.442Z,100084.00
2019-05-29T07:08:38.375Z,100085.00
2019-05-29T07:10:57.701Z,100090.00
2019-05-29T07:13:27.134Z,100087.00
2019-05-29T07:15:56.530Z,100097.00
2019-05-29T07:18:26.335Z,100099.00
2019-05-29T07:20:55.547Z,100108.00
2019-05-29T07:23:24.911Z,100105.00
2019-05-29T07:25:54.344Z,100116.00
2019-05-29T07:28:23.581Z,100115.00
2019-05-29T07:31:00.765Z,100117.00
2019-05-29T07:33:23.944Z,100117.00
2019-05-29T07:35:53.135Z,100126.00
2019-05-29T07:38:22.678Z,100124.00
2019-05-29T07:40:52.279Z,100118.00
2019-05-29T07:43:21.927Z,100138.00
2019-05-29T07:45:51.246Z,100141.00
2019-05-29T07:48:20.715Z,100145.00
2019-05-29T07:50:50.105Z,100144.00
2019-05-29T07:53:19.245Z,100147.00
2019-05-29T07:55:49.051Z,100148.00
2019-05-29T07:58:18.345Z,100143.00
2019-05-29T08:01:09.876Z,100148.00
2019-05-29T08:03:19.060Z,100150.00
2019-05-29T08:05:51.453Z,100151.00
2019-05-29T08:08:19.585Z,100159.00
2019-05-29T08:10:49.782Z,100162.00
2019-05-29T08:13:19.449Z,100169.00
2019-05-29T08:15:57.580Z,100171.00
2019-05-29T08:18:19.856Z,100185.00
2019-05-29T08:20:50.247Z,100181.00
2019-05-29T08:23:19.773Z,100176.00
2019-05-29T08:25:49.661Z,100179.00
2019-05-29T08:28:18.917Z,100193.00
2019-05-29T08:30:52.524Z,100188.00
2019-05-29T08:33:19.179Z,100189.00
2019-05-29T08:35:55.702Z,100189.00
2019-05-29T08:38:19.644Z,100186.00
2019-05-29T08:40:49.531Z,100198.00
2019-05-29T08:43:19.072Z,100196.00
2019-05-29T08:45:49.688Z,100198.00
2019-05-29T08:48:19.290Z,100195.00
2019-05-29T08:50:49.869Z,100195.00
2019-05-29T08:53:19.192Z,100205.00
2019-05-29T08:55:48.987Z,100208.00
2019-05-29T08:58:18.853Z,100210.00
2019-05-29T09:00:51.939Z,100217.00
2019-05-29T09:03:18.961Z,100220.00
2019-05-29T09:06:04.921Z,100216.00
2019-05-29T09:08:19.192Z,100213.00
2019-05-29T09:10:49.415Z,100217.00
2019-05-29T09:13:18.765Z,100226.00
2019-05-29T09:15:48.163Z,100219.00
2019-05-29T09:18:17.583Z,100222.00
2019-05-29T09:21:01.917Z,100218.00
2019-05-29T09:23:18.889Z,100223.00
2019-05-29T09:25:48.203Z,100221.00
2019-05-29T09:28:18.277Z,100233.00
2019-05-29T09:30:47.183Z,100228.00
2019-05-29T09:33:19.501Z,100234.00
2019-05-29T09:35:47.334Z,100232.00
2019-05-29T09:38:16.919Z,100232.00
2019-05-29T09:40:46.334Z,100231.00
2019-05-29T09:43:16.906Z,100233.00
2019-05-29T09:45:47.265Z,100245.00
2019-05-29T09:48:20.315Z,100250.00
2019-05-29T09:50:50.419Z,100247.00
2019-05-29T09:53:18.650Z,100242.00
2019-05-29T09:55:48.051Z,100251.00
2019-05-29T09:58:17.214Z,100252.00
2019-05-29T10:00:46.928Z,100246.00
2019-05-29T10:03:16.097Z,100248.00
2019-05-29T10:05:45.528Z,100245.00
2019-05-29T10:08:16.956Z,100250.00
2019-05-29T10:10:45.609Z,100244.00
2019-05-29T10:13:14.983Z,100254.00
2019-05-29T10:15:44.425Z,100251.00
2019-05-29T10:18:31.421Z,100250.00
2019-05-29T10:20:44.783Z,100262.00
2019-05-29T10:23:14.265Z,100264.00
2019-05-29T10:25:43.702Z,100259.00
2019-05-29T10:28:13.416Z,100258.00
2019-05-29T10:30:44.254Z,100263.00
2019-05-29T10:33:13.858Z,100256.00
2019-05-29T10:35:44.702Z,100264.00
2019-05-29T10:38:14.215Z,100255.00
2019-05-29T10:40:50.160Z,100257.00
2019-05-29T10:43:14.556Z,100273.00
2019-05-29T10:45:43.730Z,100260.00
2019-05-29T10:48:13.133Z,100273.00
2019-05-29T10:50:43.501Z,100271.00
2019-05-29T10:53:12.818Z,100265.00
2019-05-29T10:55:41.992Z,100257.00
2019-05-29T10:58:11.481Z,100270.00
2019-05-29T11:00:40.904Z,100272.00
2019-05-29T11:03:10.100Z,100269.00
2019-05-29T11:05:39.286Z,100266.00
2019-05-29T11:08:08.470Z,100264.00
2019-05-29T11:10:37.872Z,100261.00
2019-05-29T11:13:07.342Z,100275.00
2019-05-29T11:15:36.772Z,100270.00
2019-05-29T11:18:06.457Z,100269.00
2019-05-29T11:20:35.964Z,100268.00
2019-05-29T11:23:05.182Z,100260.00
2019-05-29T11:25:34.657Z,100260.00
2019-05-29T11:28:03.833Z,100256.00
2019-05-29T11:30:33.001Z,100266.00
2019-05-29T11:33:02.186Z,100266.00
2019-05-29T11:35:31.383Z,100268.00
2019-05-29T11:38:00.561Z,100261.00
2019-05-29T11:40:30.554Z,100260.00
2019-05-29T11:43:00.195Z,100263.00
2019-05-29T11:45:29.795Z,100261.00
2019-05-29T11:48:01.336Z,100257.00
2019-05-29T11:50:30.129Z,100266.00
2019-05-29T11:52:59.631Z,100265.00
2019-05-29T11:55:29.064Z,100260.00
2019-05-29T11:57:59.787Z,100267.00
2019-05-29T12:00:29.530Z,100264.00
2019-05-29T12:02:59.633Z,100273.00
2019-05-29T12:05:28.924Z,100256.00
2019-05-29T12:07:59.488Z,100260.00
2019-05-29T12:10:28.932Z,100265.00
2019-05-29T12:12:59.552Z,100271.00
2019-05-29T12:15:29.153Z,100263.00
2019-05-29T12:18:21.953Z,100271.00
2019-05-29T12:20:29.544Z,100276.00
2019-05-29T12:23:18.651Z,100275.00
2019-05-29T12:25:30.025Z,100274.00
2019-05-29T12:28:01.195Z,100262.00
2019-05-29T12:30:30.775Z,100264.00
2019-05-29T12:33:01.098Z,100261.00
2019-05-29T12:35:30.484Z,100271.00
2019-05-29T12:37:59.681Z,100276.00
2019-05-29T12:40:29.204Z,100252.00
2019-05-29T12:43:00.165Z,100276.00
2019-05-29T12:45:30.140Z,100270.00
2019-05-29T12:47:59.847Z,100266.00
2019-05-29T12:50:33.624Z,100264.00
2019-05-29T12:53:01.747Z,100259.00
2019-05-29T12:55:31.558Z,100261.00
2019-05-29T12:58:02.193Z,100262.00
2019-05-29T13:00:31.816Z,100261.00
2019-05-29T13:03:01.055Z,100267.00
2019-05-29T13:05:30.212Z,100277.00
2019-05-29T13:08:00.698Z,100271.00
2019-05-29T13:10:31.371Z,100272.00
2019-05-29T13:13:06.957Z,100272.00
2019-05-29T13:15:32.181Z,100270.00
2019-05-29T13:18:06.324Z,100275.00
2019-05-29T13:20:32.702Z,100273.00
2019-05-29T13:23:03.634Z,100273.00
2019-05-29T13:25:33.452Z,100267.00
2019-05-29T13:28:04.339Z,100260.00
2019-05-29T13:30:34.086Z,100258.00
2019-05-29T13:33:06.758Z,100260.00
2019-05-29T13:35:34.812Z,100264.00
2019-05-29T13:38:05.121Z,100266.00
2019-05-29T13:40:34.439Z,100266.00
2019-05-29T13:43:11.204Z,100261.00
2019-05-29T13:45:35.105Z,100268.00
2019-05-29T13:48:05.436Z,100257.00
2019-05-29T13:50:34.860Z,100261.00
2019-05-29T13:53:05.375Z,100257.00
2019-05-29T13:55:34.924Z,100259.00
2019-05-29T13:58:04.244Z,100266.00
2019-05-29T14:00:35.078Z,100266.00
2019-05-29T14:03:06.633Z,100266.00
2019-05-29T14:05:36.173Z,100263.00
2019-05-29T14:08:07.066Z,100267.00
2019-05-29T14:10:36.494Z,100271.00
2019-05-29T14:13:07.378Z,100264.00
2019-05-29T14:15:36.900Z,100261.00
2019-05-29T14:18:07.121Z,100263.00
2019-05-29T14:20:36.673Z,100268.00
2019-05-29T14:23:07.499Z,100274.00
2019-05-29T14:25:36.729Z,100284.00
2019-05-29T14:28:06.841Z,100281.00
2019-05-29T14:30:36.101Z,100287.00
2019-05-29T14:33:06.765Z,100283.00
2019-05-29T14:35:36.310Z,100278.00
2019-05-29T14:38:09.904Z,100285.00
2019-05-29T14:40:36.751Z,100283.00
2019-05-29T14:43:10.128Z,100277.00
2019-05-29T14:45:37.508Z,100280.00
2019-05-29T14:48:08.047Z,100287.00
2019-05-29T14:50:37.685Z,100282.00
2019-05-29T14:53:07.403Z,100289.00
2019-05-29T14:55:37.197Z,100293.00
2019-05-29T14:58:07.777Z,100287.00
2019-05-29T15:00:36.922Z,100296.00
2019-05-29T15:03:07.262Z,100288.00
2019-05-29T15:05:36.795Z,100299.00
2019-05-29T15:08:06.243Z,100288.00
2019-05-29T15:10:35.441Z,100288.00
2019-05-29T15:13:06.312Z,100288.00
2019-05-29T15:15:35.998Z,100291.00
2019-05-29T15:18:05.161Z,100288.00
2019-05-29T15:20:34.964Z,100292.00
2019-05-29T15:23:05.176Z,100290.00
2019-05-29T15:25:34.533Z,100284.00
2019-05-29T15:28:03.790Z,100293.00
2019-05-29T15:30:33.197Z,100293.00
2019-05-29T15:33:02.384Z,100288.00
2019-05-29T15:35:31.512Z,100286.00
2019-05-29T15:38:00.665Z,100293.00
2019-05-29T15:40:29.808Z,100286.00
2019-05-29T15:42:59.190Z,100295.00
2019-05-29T15:45:28.699Z,100300.00
2019-05-29T15:47:57.880Z,100304.00
2019-05-29T15:50:27.059Z,100305.00
2019-05-29T15:52:59.451Z,100301.00
2019-05-29T15:55:34.348Z,100302.00
2019-05-29T15:58:00.232Z,100311.00
2019-05-29T16:00:29.601Z,100306.00
2019-05-29T16:02:59.158Z,100309.00
2019-05-29T16:05:28.379Z,100305.00
2019-05-29T16:07:57.759Z,100295.00
2019-05-29T16:10:27.223Z,100300.00
2019-05-29T16:12:56.626Z,100297.00
2019-05-29T16:15:26.769Z,100301.00
2019-05-29T16:17:56.217Z,100302.00
2019-05-29T16:20:25.385Z,100308.00
2019-05-29T16:22:54.968Z,100308.00
2019-05-29T16:25:39.679Z,100302.00
2019-05-29T16:27:55.210Z,100302.00
2019-05-29T16:30:24.490Z,100314.00
2019-05-29T16:32:53.627Z,100316.00
2019-05-29T16:35:24.138Z,100309.00
2019-05-29T16:37:53.589Z,100319.00
2019-05-29T16:40:23.052Z,100318.00
2019-05-29T16:42:52.204Z,100319.00
2019-05-29T16:45:22.417Z,100316.00
2019-05-29T16:47:51.742Z,100320.00
2019-05-29T16:50:22.864Z,100325.00
2019-05-29T16:52:52.461Z,100326.00
2019-05-29T16:55:23.088Z,100334.00
2019-05-29T16:57:52.433Z,100324.00
2019-05-29T17:00:25.380Z,100333.00
2019-05-29T17:02:54.643Z,100336.00
2019-05-29T17:05:24.238Z,100340.00
2019-05-29T17:07:53.791Z,100343.00
2019-05-29T17:10:35.923Z,100347.00
2019-05-29T17:13:07.231Z,100344.00
2019-05-29T17:15:36.772Z,100341.00
2019-05-29T17:18:06.025Z,100354.00
2019-05-29T17:20:42.319Z,100350.00
2019-05-29T17:23:11.929Z,100352.00
2019-05-29T17:25:41.399Z,100359.00
2019-05-29T17:28:10.784Z,100361.00
2019-05-29T17:30:39.997Z,100362.00
2019-05-29T17:33:09.221Z,100356.00
2019-05-29T17:35:38.726Z,100356.00
2019-05-29T17:38:07.880Z,100365.00
2019-05-29T17:40:37.327Z,100355.00
2019-05-29T17:43:13.436Z,100358.00
2019-05-29T17:45:42.882Z,100370.00
2019-05-29T17:48:12.283Z,100366.00
2019-05-29T17:50:41.821Z,100369.00
2019-05-29T17:53:11.215Z,100372.00
2019-05-29T17:55:40.596Z,100374.00
2019-05-29T17:58:10.100Z,100376.00
2019-05-29T18:00:39.673Z,100379.00
2019-05-29T18:03:08.944Z,100381.00
2019-05-29T18:05:38.331Z,100385.00
2019-05-29T18:08:07.729Z,100387.00
2019-05-29T18:10:36.940Z,100373.00
2019-05-29T18:13:06.238Z,100380.00
2019-05-29T18:15:35.477Z,100389.00
2019-05-29T18:18:05.216Z,100386.00
2019-05-29T18:20:34.419Z,100389.00
2019-05-29T18:23:03.621Z,100388.00
2019-05-29T18:25:33.017Z,100392.00
2019-05-29T18:28:02.280Z,100396.00
2019-05-29T18:30:31.618Z,100395.00
2019-05-29T18:33:01.011Z,100403.00
2019-05-29T18:35:30.364Z,100406.00
2019-05-29T18:37:59.764Z,100408.00
2019-05-29T18:40:28.934Z,100404.00
2019-05-29T18:42:58.344Z,100415.00
2019-05-29T18:45:29.155Z,100414.00
2019-05-29T18:47:58.712Z,100416.00
2019-05-29T18:50:28.116Z,100416.00
2019-05-29T18:52:57.533Z,100410.00
2019-05-29T18:55:27.175Z,100424.00
2019-05-29T18:57:56.396Z,100417.00
2019-05-29T19:00:25.729Z,100420.00
2019-05-29T19:02:55.106Z,100422.00
2019-05-29T19:05:25.483Z,100429.00
2019-05-29T19:07:54.857Z,100420.00
2019-05-29T19:10:24.052Z,100421.00
2019-05-29T19:12:53.457Z,100422.00
2019-05-29T19:15:23.763Z,100422.00
2019-05-29T19:17:53.723Z,100432.00
2019-05-29T19:20:24.232Z,100428.00
2019-05-29T19:22:53.756Z,100435.00
2019-05-29T19:25:24.591Z,100447.00
2019-05-29T19:27:54.249Z,100447.00
2019-05-29T19:30:24.821Z,100451.00
2019-05-29T19:32:54.316Z,100448.00
2019-05-29T19:35:23.813Z,100455.00
2019-05-29T19:37:53.813Z,100457.00
2019-05-29T19:40:24.040Z,100455.00
2019-05-29T19:42:54.743Z,100459.00
2019-05-29T19:45:24.686Z,100461.00
2019-05-29T19:47:54.224Z,100464.00
2019-05-29T19:50:24.678Z,100461.00
2019-05-29T19:52:54.225Z,100471.00
2019-05-29T19:55:23.417Z,100462.00
2019-05-29T19:57:56.536Z,100467.00
2019-05-29T20:00:24.341Z,100466.00
2019-05-29T20:02:53.735Z,100471.00
2019-05-29T20:05:22.964Z,100480.00
2019-05-29T20:07:52.333Z,100473.00
2019-05-29T20:10:21.507Z,100487.00
2019-05-29T20:12:50.930Z,100479.00
2019-05-29T20:15:20.063Z,100481.00
2019-05-29T20:17:49.237Z,100481.00
2019-05-29T20:20:19.297Z,100479.00
2019-05-29T20:22:48.672Z,100485.00
2019-05-29T20:25:18.148Z,100484.00
2019-05-29T20:27:47.568Z,100488.00
2019-05-29T20:30:19.189Z,100480.00
2019-05-29T20:32:48.498Z,100487.00
2019-05-29T20:35:18.306Z,100492.00
2019-05-29T20:37:47.696Z,100485.00
2019-05-29T20:40:17.949Z,100490.00
2019-05-29T20:42:47.205Z,100494.00
2019-05-29T20:45:16.724Z,100490.00
2019-05-29T20:47:45.931Z,100492.00
2019-05-29T20:50:15.187Z,100497.00
2019-05-29T20:52:44.596Z,100493.00
2019-05-29T20:55:35.537Z,100498.00
2019-05-29T20:58:24.234Z,100504.00
2019-05-29T21:00:45.027Z,100500.00
2019-05-29T21:03:14.255Z,100498.00
2019-05-29T21:05:43.659Z,100505.00
2019-05-29T21:08:12.841Z,100499.00
2019-05-29T21:10:42.390Z,100502.00
2019-05-29T21:13:12.958Z,100515.00
2019-05-29T21:15:42.382Z,100511.00
2019-05-29T21:18:11.568Z,100508.00
2019-05-29T21:20:42.657Z,100513.00
2019-05-29T21:23:18.396Z,100519.00
2019-05-29T21:25:47.789Z,100521.00
2019-05-29T21:28:17.053Z,100522.00
2019-05-29T21:30:46.286Z,100520.00
2019-05-29T21:33:15.695Z,100522.00
2019-05-29T21:35:44.921Z,100520.00
2019-05-29T21:38:14.305Z,100518.00
2019-05-29T21:40:44.570Z,100523.00
2019-05-29T21:43:14.042Z,100519.00
2019-05-29T21:45:45.204Z,100523.00
2019-05-29T21:48:14.474Z,100528.00
2019-05-29T21:50:43.905Z,100518.00
2019-05-29T21:53:13.341Z,100519.00
2019-05-29T21:55:48.339Z,100516.00
2019-05-29T21:58:17.896Z,100521.00
2019-05-29T22:00:52.554Z,100521.00
2019-05-29T22:03:22.282Z,100521.00
2019-05-29T22:05:51.490Z,100524.00
2019-05-29T22:08:20.887Z,100522.00
2019-05-29T22:10:51.297Z,100520.00
2019-05-29T22:13:20.963Z,100523.00
2019-05-29T22:15:50.663Z,100526.00
2019-05-29T22:18:20.086Z,100526.00
2019-05-29T22:20:50.959Z,100524.00
2019-05-29T22:23:20.524Z,100522.00
2019-05-29T22:25:51.168Z,100525.00
2019-05-29T22:28:20.376Z,100524.00
2019-05-29T22:30:53.297Z,100525.00
2019-05-29T22:33:22.607Z,100525.00
2019-05-29T22:35:52.669Z,100528.00
2019-05-29T22:38:22.991Z,100529.00
2019-05-29T22:40:53.836Z,100526.00
2019-05-29T22:43:23.378Z,100539.00
2019-05-29T22:45:53.595Z,100537.00
2019-05-29T22:48:23.166Z,100531.00
2019-05-29T22:50:53.821Z,100527.00
2019-05-29T22:53:23.339Z,100530.00
2019-05-29T22:55:53.626Z,100535.00
2019-05-29T22:58:23.494Z,100523.00
2019-05-29T23:00:53.819Z,100531.00
2019-05-29T23:03:23.703Z,100521.00
2019-05-29T23:05:54.228Z,100528.00
2019-05-29T23:08:23.577Z,100520.00
2019-05-29T23:10:52.727Z,100523.00
2019-05-29T23:13:23.133Z,100526.00
2019-05-29T23:15:52.552Z,100516.00
2019-05-29T23:18:21.916Z,100514.00
2019-05-29T23:20:52.378Z,100525.00
2019-05-29T23:23:21.744Z,100519.00
2019-05-29T23:25:51.114Z,100521.00
2019-05-29T23:28:20.331Z,100522.00
2019-05-29T23:30:49.532Z,100520.00
2019-05-29T23:33:18.692Z,100519.00
2019-05-29T23:35:47.868Z,100517.00
2019-05-29T23:38:17.494Z,100516.00
2019-05-29T23:40:46.920Z,100496.00
2019-05-29T23:43:16.131Z,100500.00
2019-05-29T23:45:45.733Z,100510.00
2019-05-29T23:48:15.179Z,100499.00
2019-05-29T23:50:44.641Z,100496.00
2019-05-29T23:53:14.086Z,100497.00
2019-05-29T23:55:46.523Z,100500.00
2019-05-29T23:58:15.923Z,100496.00
